createdAt,value
2017-07-20T00:01:26.902Z,9.00
2017-07-20T00:03:54.506Z,7.37
2017-07-20T00:06:22.098Z,5.63
2017-07-20T00:08:49.740Z,6.03
2017-07-20T00:11:17.343Z,8.23
2017-07-20T00:13:44.987Z,7.73
2017-07-20T00:16:12.574Z,7.13
2017-07-20T00:18:40.195Z,8.73
2017-07-20T00:21:07.874Z,7.50
2017-07-20T00:23:35.514Z,11.30
2017-07-20T00:26:03.117Z,7.50
2017-07-20T00:28:30.745Z,8.97
2017-07-20T00:30:58.342Z,9.73
2017-07-20T00:33:26.057Z,9.37
2017-07-20T00:35:53.658Z,6.87
2017-07-20T00:38:21.274Z,7.83
2017-07-20T00:40:48.875Z,8.00
2017-07-20T00:43:16.487Z,10.40
2017-07-20T00:45:44.165Z,5.57
2017-07-20T00:48:11.818Z,6.60
2017-07-20T00:50:39.443Z,6.83
2017-07-20T00:53:07.113Z,7.77
2017-07-20T00:55:34.818Z,6.00
2017-07-20T00:58:02.406Z,6.87
2017-07-20T01:00:30.006Z,6.07
2017-07-20T01:02:57.641Z,8.20
2017-07-20T01:05:25.383Z,6.97
2017-07-20T01:07:52.983Z,7.23
2017-07-20T01:10:20.630Z,7.83
2017-07-20T01:12:48.255Z,9.63
2017-07-20T01:15:15.900Z,14.90
2017-07-20T01:17:43.497Z,8.73
2017-07-20T01:20:11.128Z,10.03
2017-07-20T01:22:38.762Z,12.33
2017-07-20T01:25:06.362Z,7.30
2017-07-20T01:27:33.985Z,10.43
2017-07-20T01:30:01.587Z,10.10
2017-07-20T01:32:29.245Z,13.33
2017-07-20T01:34:56.850Z,8.80
2017-07-20T01:37:24.472Z,9.10
2017-07-20T01:39:52.071Z,8.50
2017-07-20T01:42:19.682Z,9.50
2017-07-20T01:44:47.283Z,8.20
2017-07-20T01:47:14.910Z,12.03
2017-07-20T01:49:42.565Z,9.90
2017-07-20T01:52:10.171Z,7.27
2017-07-20T01:54:37.810Z,6.33
2017-07-20T01:57:05.440Z,7.60
2017-07-20T01:59:33.060Z,9.63
2017-07-20T02:02:00.674Z,6.63
2017-07-20T02:04:28.272Z,6.53
2017-07-20T02:06:56.010Z,9.70
2017-07-20T02:09:23.599Z,6.77
2017-07-20T02:11:51.218Z,7.40
2017-07-20T02:14:18.820Z,7.13
2017-07-20T02:16:46.450Z,8.37
2017-07-20T02:19:14.052Z,12.17
2017-07-20T02:21:41.697Z,8.10
2017-07-20T02:24:09.299Z,8.03
2017-07-20T02:26:36.937Z,8.10
2017-07-20T02:29:04.555Z,7.13
2017-07-20T02:31:32.168Z,6.77
2017-07-20T02:33:59.870Z,7.17
2017-07-20T02:36:27.515Z,9.47
2017-07-20T02:38:55.126Z,6.47
2017-07-20T02:41:22.742Z,6.53
2017-07-20T02:43:50.343Z,7.87
2017-07-20T02:46:17.970Z,6.70
2017-07-20T02:48:45.581Z,10.27
2017-07-20T02:51:13.200Z,7.33
2017-07-20T02:53:40.787Z,9.93
2017-07-20T02:56:08.509Z,10.77
2017-07-20T02:58:36.113Z,10.90
2017-07-20T03:01:03.764Z,7.17
2017-07-20T03:03:31.373Z,8.70
2017-07-20T03:05:58.966Z,13.73
2017-07-20T03:08:26.577Z,8.13
2017-07-20T03:10:54.174Z,7.23
2017-07-20T03:13:21.786Z,7.10
2017-07-20T03:15:49.391Z,8.00
2017-07-20T03:18:17.040Z,7.53
2017-07-20T03:20:44.644Z,8.27
2017-07-20T03:23:12.253Z,15.17
2017-07-20T03:25:39.873Z,9.10
2017-07-20T03:28:07.485Z,7.43
2017-07-20T03:30:35.104Z,7.27
2017-07-20T03:33:02.711Z,8.27
2017-07-20T03:35:30.478Z,8.30
2017-07-20T03:37:58.074Z,8.13
2017-07-20T03:40:25.694Z,9.27
2017-07-20T03:42:53.291Z,9.80
2017-07-20T03:45:20.918Z,12.43
2017-07-20T03:47:48.533Z,11.23
2017-07-20T03:50:16.162Z,10.00
2017-07-20T03:52:43.754Z,13.40
2017-07-20T03:55:11.518Z,8.50
2017-07-20T03:57:39.126Z,10.63
2017-07-20T04:00:06.746Z,15.90
2017-07-20T04:02:34.354Z,13.53
2017-07-20T04:05:01.995Z,11.07
2017-07-20T04:07:29.591Z,8.77
2017-07-20T04:09:57.234Z,14.13
2017-07-20T04:12:24.835Z,15.53
2017-07-20T04:14:52.475Z,7.03
2017-07-20T04:17:20.062Z,8.03
2017-07-20T04:19:47.682Z,6.23
2017-07-20T04:22:15.279Z,4.30
2017-07-20T04:24:42.903Z,3.70
2017-07-20T04:27:10.503Z,4.83
2017-07-20T04:29:38.227Z,5.27
2017-07-20T04:32:05.821Z,11.07
2017-07-20T04:34:33.427Z,6.20
2017-07-20T04:37:01.070Z,7.53
2017-07-20T04:39:28.675Z,7.73
2017-07-20T04:41:56.310Z,6.37
2017-07-20T04:44:23.938Z,8.03
2017-07-20T04:46:51.546Z,3.77
2017-07-20T04:49:19.147Z,3.43
2017-07-20T04:51:46.815Z,3.87
2017-07-20T04:54:14.447Z,12.17
2017-07-20T04:56:42.092Z,41.73
2017-07-20T04:59:09.708Z,4.60
2017-07-20T05:01:37.330Z,4.40
2017-07-20T05:04:04.954Z,4.07
2017-07-20T05:06:32.629Z,5.97
2017-07-20T05:09:00.278Z,5.53
2017-07-20T05:11:27.929Z,10.23
2017-07-20T05:13:55.560Z,6.13
2017-07-20T05:16:23.157Z,7.37
2017-07-20T05:18:50.784Z,7.17
2017-07-20T05:21:18.642Z,7.90
2017-07-20T05:23:46.278Z,5.67
2017-07-20T05:26:13.879Z,7.90
2017-07-20T05:28:41.569Z,5.80
2017-07-20T05:31:09.161Z,8.90
2017-07-20T05:33:36.841Z,10.93
2017-07-20T05:36:04.433Z,7.40
2017-07-20T05:38:32.059Z,5.83
2017-07-20T05:40:59.653Z,7.50
2017-07-20T05:43:27.280Z,11.20
2017-07-20T05:45:54.886Z,5.83
2017-07-20T05:48:22.516Z,6.27
2017-07-20T05:50:50.126Z,5.13
2017-07-20T05:53:17.751Z,8.87
2017-07-20T05:55:45.462Z,9.60
2017-07-20T05:58:13.102Z,10.10
2017-07-20T06:00:40.718Z,7.60
2017-07-20T06:03:08.378Z,7.13
2017-07-20T06:05:36.079Z,6.33
2017-07-20T06:08:03.675Z,10.90
2017-07-20T06:10:31.315Z,16.70
2017-07-20T06:12:58.965Z,6.73
2017-07-20T06:15:26.590Z,11.20
2017-07-20T06:17:54.238Z,8.37
2017-07-20T06:20:21.863Z,9.70
2017-07-20T06:22:49.513Z,7.93
2017-07-20T06:25:17.144Z,6.20
2017-07-20T06:27:44.751Z,7.30
2017-07-20T06:30:12.392Z,7.10
2017-07-20T06:32:40.010Z,6.53
2017-07-20T06:35:07.631Z,6.27
2017-07-20T06:37:35.243Z,6.73
2017-07-20T06:40:02.888Z,5.30
2017-07-20T06:42:30.499Z,5.73
2017-07-20T06:44:58.134Z,5.70
2017-07-20T06:47:25.740Z,6.03
2017-07-20T06:49:53.430Z,6.13
2017-07-20T06:52:21.042Z,8.53
2017-07-20T06:54:48.758Z,9.10
2017-07-20T06:57:16.356Z,6.23
2017-07-20T06:59:44.043Z,9.80
2017-07-20T07:02:11.677Z,10.13
2017-07-20T07:04:39.270Z,9.00
2017-07-20T07:07:06.895Z,8.10
2017-07-20T07:09:34.498Z,7.60
2017-07-20T07:12:02.140Z,5.30
2017-07-20T07:14:29.834Z,5.30
2017-07-20T07:16:57.492Z,5.93
2017-07-20T07:19:25.127Z,5.67
2017-07-20T07:21:52.782Z,4.97
2017-07-20T07:24:20.375Z,5.33
2017-07-20T07:26:48.024Z,11.07
2017-07-20T07:29:15.618Z,6.50
2017-07-20T07:31:43.265Z,7.57
2017-07-20T07:34:10.875Z,5.20
2017-07-20T07:36:38.504Z,9.53
2017-07-20T07:39:06.131Z,7.43
2017-07-20T07:41:33.775Z,8.00
2017-07-20T07:44:01.391Z,7.17
2017-07-20T07:46:29.058Z,6.00
2017-07-20T07:48:56.664Z,11.50
2017-07-20T07:51:24.266Z,6.60
2017-07-20T07:53:51.911Z,10.30
2017-07-20T07:56:19.910Z,6.70
2017-07-20T07:58:47.523Z,9.20
2017-07-20T08:01:15.116Z,9.37
2017-07-20T08:03:42.789Z,6.60
2017-07-20T08:06:10.429Z,7.17
2017-07-20T08:08:38.095Z,7.33
2017-07-20T08:11:05.692Z,11.30
2017-07-20T08:13:33.351Z,7.93
2017-07-20T08:16:00.939Z,8.60
2017-07-20T08:18:28.564Z,8.93
2017-07-20T08:20:56.213Z,9.00
2017-07-20T08:23:23.858Z,8.33
2017-07-20T08:25:51.494Z,8.43
2017-07-20T08:28:19.094Z,8.33
2017-07-20T08:30:46.731Z,9.47
2017-07-20T08:33:14.322Z,11.50
2017-07-20T08:35:41.948Z,8.70
2017-07-20T08:38:09.554Z,8.90
2017-07-20T08:40:37.208Z,9.77
2017-07-20T08:43:04.811Z,8.77
2017-07-20T08:45:32.462Z,10.43
2017-07-20T08:48:00.062Z,9.43
2017-07-20T08:50:27.696Z,11.07
2017-07-20T08:52:55.314Z,8.97
2017-07-20T08:55:22.934Z,9.77
2017-07-20T08:57:50.543Z,9.40
2017-07-20T09:00:18.210Z,8.60
2017-07-20T09:02:45.838Z,9.47
2017-07-20T09:05:13.422Z,11.73
2017-07-20T09:07:41.066Z,9.47
2017-07-20T09:10:08.667Z,8.67
2017-07-20T09:12:36.373Z,10.40
2017-07-20T09:15:03.971Z,9.67
2017-07-20T09:17:31.602Z,10.27
2017-07-20T09:19:59.255Z,9.23
2017-07-20T09:22:26.894Z,10.40
2017-07-20T09:24:54.674Z,8.70
2017-07-20T09:27:22.269Z,11.63
2017-07-20T09:29:49.870Z,10.83
2017-07-20T09:32:17.509Z,8.80
2017-07-20T09:34:45.115Z,8.63
2017-07-20T09:37:12.767Z,9.63
2017-07-20T09:39:40.393Z,8.90
2017-07-20T09:42:08.030Z,11.00
2017-07-20T09:44:35.624Z,7.87
2017-07-20T09:47:03.255Z,7.90
2017-07-20T09:49:30.862Z,7.80
2017-07-20T09:51:59.310Z,7.10
2017-07-20T09:54:26.922Z,6.93
2017-07-20T09:56:54.566Z,8.97
2017-07-20T09:59:22.170Z,7.83
2017-07-20T10:01:49.766Z,8.63
2017-07-20T10:04:17.400Z,7.67
2017-07-20T10:06:45.054Z,6.63
2017-07-20T10:09:12.647Z,7.07
2017-07-20T10:11:40.250Z,5.87
2017-07-20T10:14:07.882Z,6.13
2017-07-20T10:16:35.532Z,6.00
2017-07-20T10:19:03.209Z,5.80
2017-07-20T10:21:30.887Z,5.40
2017-07-20T10:23:58.507Z,5.43
2017-07-20T10:26:26.103Z,5.30
2017-07-20T10:28:53.730Z,5.17
2017-07-20T10:31:21.331Z,7.63
2017-07-20T10:33:48.966Z,5.10
2017-07-20T10:36:16.591Z,4.43
2017-07-20T10:38:44.219Z,5.13
2017-07-20T10:41:11.817Z,4.23
2017-07-20T10:43:39.465Z,4.50
2017-07-20T10:46:07.083Z,4.17
2017-07-20T10:48:34.716Z,3.17
2017-07-20T10:51:02.322Z,4.20
2017-07-20T10:53:29.962Z,3.37
2017-07-20T10:55:57.596Z,3.97
2017-07-20T10:58:25.235Z,3.67
2017-07-20T11:00:52.837Z,3.80
2017-07-20T11:03:20.466Z,4.23
2017-07-20T11:05:48.064Z,2.90
2017-07-20T11:08:15.703Z,2.83
2017-07-20T11:10:43.304Z,3.00
2017-07-20T11:13:10.947Z,2.00
2017-07-20T11:15:38.549Z,2.70
2017-07-20T11:18:06.178Z,3.20
2017-07-20T11:20:33.778Z,3.97
2017-07-20T11:23:01.401Z,4.07
2017-07-20T11:25:29.003Z,4.07
2017-07-20T11:27:56.648Z,4.67
2017-07-20T11:30:24.255Z,4.50
2017-07-20T11:32:51.874Z,3.73
2017-07-20T11:35:19.467Z,4.10
2017-07-20T11:37:47.059Z,3.20
2017-07-20T11:40:14.674Z,2.97
2017-07-20T11:42:42.362Z,4.03
2017-07-20T11:45:10.006Z,5.53
2017-07-20T11:47:37.611Z,3.33
2017-07-20T11:50:05.231Z,2.90
2017-07-20T11:52:32.828Z,2.90
2017-07-20T11:55:00.485Z,2.30
2017-07-20T11:57:28.145Z,1.70
2017-07-20T11:59:55.754Z,2.87
2017-07-20T12:02:23.355Z,2.17
2017-07-20T12:04:50.990Z,5.17
2017-07-20T12:07:18.578Z,5.23
2017-07-20T12:09:46.246Z,3.23
2017-07-20T12:12:13.847Z,2.17
2017-07-20T12:14:41.478Z,3.10
2017-07-20T12:17:09.070Z,2.77
2017-07-20T12:19:36.761Z,1.77
2017-07-20T12:22:04.382Z,1.60
2017-07-20T12:24:32.014Z,1.93
2017-07-20T12:26:59.635Z,3.30
2017-07-20T12:29:27.256Z,3.53
2017-07-20T12:31:54.905Z,1.90
2017-07-20T12:34:22.570Z,1.57
2017-07-20T12:36:50.178Z,1.93
2017-07-20T12:39:17.808Z,1.60
2017-07-20T12:41:45.415Z,1.80
2017-07-20T12:44:13.066Z,1.83
2017-07-20T12:46:40.649Z,1.97
2017-07-20T12:49:08.256Z,2.27
2017-07-20T12:51:35.898Z,1.63
2017-07-20T12:54:03.491Z,1.50
2017-07-20T12:56:31.106Z,1.70
2017-07-20T12:58:58.772Z,1.97
2017-07-20T13:01:26.404Z,2.23
2017-07-20T13:03:54.073Z,2.10
2017-07-20T13:06:21.908Z,2.17
2017-07-20T13:08:49.502Z,2.30
2017-07-20T13:11:17.136Z,2.07
2017-07-20T13:13:44.726Z,1.80
2017-07-20T13:16:12.783Z,3.63
2017-07-20T13:18:40.394Z,2.43
2017-07-20T13:21:08.316Z,1.87
2017-07-20T13:23:35.932Z,2.90
2017-07-20T13:26:03.970Z,2.03
2017-07-20T13:28:31.678Z,1.97
2017-07-20T13:30:59.314Z,2.40
2017-07-20T13:33:26.906Z,2.13
2017-07-20T13:35:54.586Z,1.90
2017-07-20T13:38:22.191Z,2.67
2017-07-20T13:40:49.825Z,1.80
2017-07-20T13:43:17.425Z,3.67
2017-07-20T13:45:45.059Z,2.70
2017-07-20T13:48:12.662Z,1.70
2017-07-20T13:50:40.301Z,20.23
2017-07-20T13:53:07.886Z,1.80
2017-07-20T13:55:35.514Z,1.77
2017-07-20T13:58:03.150Z,2.10
2017-07-20T14:00:30.802Z,2.10
2017-07-20T14:02:58.487Z,3.03
2017-07-20T14:05:26.114Z,2.30
2017-07-20T14:07:53.738Z,2.63
2017-07-20T14:10:21.363Z,2.63
2017-07-20T14:12:48.975Z,3.70
2017-07-20T14:15:16.614Z,4.27
2017-07-20T14:17:44.211Z,1.80
2017-07-20T14:20:11.835Z,2.33
2017-07-20T14:22:39.422Z,2.13
2017-07-20T14:25:07.066Z,1.70
2017-07-20T14:27:34.671Z,2.70
2017-07-20T14:30:02.315Z,1.87
2017-07-20T14:32:29.907Z,2.77
2017-07-20T14:34:57.555Z,2.47
2017-07-20T14:37:25.178Z,1.93
2017-07-20T14:39:52.791Z,2.13
2017-07-20T14:42:20.402Z,1.97
2017-07-20T14:44:48.058Z,2.90
2017-07-20T14:47:15.671Z,2.13
2017-07-20T14:49:43.298Z,1.77
2017-07-20T14:52:10.906Z,1.70
2017-07-20T14:54:38.547Z,1.60
2017-07-20T14:57:06.165Z,1.40
2017-07-20T14:59:33.837Z,3.00
2017-07-20T15:02:01.426Z,2.00
2017-07-20T15:04:29.125Z,2.60
2017-07-20T15:06:56.705Z,2.83
2017-07-20T15:09:24.320Z,2.63
2017-07-20T15:11:51.927Z,3.10
2017-07-20T15:14:19.570Z,4.50
2017-07-20T15:16:47.151Z,2.00
2017-07-20T15:19:14.770Z,2.00
2017-07-20T15:21:42.354Z,1.77
2017-07-20T15:24:09.994Z,3.20
2017-07-20T15:26:37.589Z,2.50
2017-07-20T15:29:05.222Z,2.17
2017-07-20T15:31:32.818Z,2.30
2017-07-20T15:34:00.465Z,2.40
2017-07-20T15:36:28.073Z,2.50
2017-07-20T15:38:55.691Z,3.03
2017-07-20T15:41:23.342Z,2.33
2017-07-20T15:43:50.939Z,2.03
2017-07-20T15:46:18.586Z,2.40
2017-07-20T15:48:46.222Z,4.83
2017-07-20T15:51:13.842Z,2.50
2017-07-20T15:53:41.509Z,1.90
2017-07-20T15:56:09.134Z,2.60
2017-07-20T15:58:36.728Z,3.00
2017-07-20T16:01:04.363Z,2.17
2017-07-20T16:03:31.954Z,3.07
2017-07-20T16:05:59.648Z,2.03
2017-07-20T16:08:27.264Z,1.97
2017-07-20T16:10:54.919Z,2.23
2017-07-20T16:13:22.540Z,1.90
2017-07-20T16:15:50.215Z,4.90
2017-07-20T16:18:17.842Z,2.43
2017-07-20T16:20:45.490Z,2.37
2017-07-20T16:23:13.086Z,5.23
2017-07-20T16:25:40.730Z,2.60
2017-07-20T16:28:08.379Z,3.40
2017-07-20T16:30:36.016Z,2.03
2017-07-20T16:33:03.606Z,1.90
2017-07-20T16:35:31.235Z,3.40
2017-07-20T16:37:58.846Z,2.33
2017-07-20T16:40:26.505Z,1.90
2017-07-20T16:42:54.136Z,4.30
2017-07-20T16:45:21.886Z,2.23
2017-07-20T16:47:49.487Z,3.47
2017-07-20T16:50:17.099Z,2.13
2017-07-20T16:52:44.741Z,2.03
2017-07-20T16:55:12.357Z,2.00
2017-07-20T16:57:39.982Z,2.10
2017-07-20T17:00:07.590Z,2.63
2017-07-20T17:02:35.213Z,3.27
2017-07-20T17:05:02.843Z,2.10
2017-07-20T17:07:30.463Z,2.80
2017-07-20T17:09:58.080Z,1.93
2017-07-20T17:12:25.730Z,1.70
2017-07-20T17:14:53.339Z,5.60
2017-07-20T17:17:20.986Z,3.57
2017-07-20T17:19:48.638Z,2.40
2017-07-20T17:22:16.254Z,2.90
2017-07-20T17:24:43.883Z,2.07
2017-07-20T17:27:11.587Z,2.00
2017-07-20T17:29:39.201Z,1.80
2017-07-20T17:32:06.838Z,3.10
2017-07-20T17:34:34.491Z,2.80
2017-07-20T17:37:02.100Z,3.17
2017-07-20T17:39:29.753Z,2.53
2017-07-20T17:41:57.342Z,4.50
2017-07-20T17:44:24.934Z,2.30
2017-07-20T17:46:52.587Z,5.13
2017-07-20T17:49:20.193Z,2.73
2017-07-20T17:51:47.815Z,1.30
2017-07-20T17:54:15.454Z,3.00
2017-07-20T17:56:43.092Z,5.43
2017-07-20T17:59:10.706Z,1.90
2017-07-20T18:01:38.370Z,1.57
2017-07-20T18:04:05.965Z,2.00
2017-07-20T18:06:33.713Z,4.60
2017-07-20T18:09:01.335Z,1.20
2017-07-20T18:11:28.930Z,1.00
2017-07-20T18:13:56.529Z,3.37
2017-07-20T18:16:24.132Z,2.23
2017-07-20T18:18:51.753Z,1.80
2017-07-20T18:21:19.348Z,3.13
2017-07-20T18:23:46.979Z,1.43
2017-07-20T18:26:14.567Z,3.17
2017-07-20T18:28:42.197Z,0.93
2017-07-20T18:31:09.809Z,1.20
2017-07-20T18:33:37.487Z,2.23
2017-07-20T18:36:05.071Z,1.10
2017-07-20T18:38:32.706Z,2.10
2017-07-20T18:41:00.331Z,1.40
2017-07-20T18:43:27.994Z,2.47
2017-07-20T18:45:55.616Z,1.37
2017-07-20T18:48:23.233Z,4.77
2017-07-20T18:50:50.837Z,1.50
2017-07-20T18:53:18.483Z,2.73
2017-07-20T18:55:46.086Z,2.43
2017-07-20T18:58:13.731Z,2.30
2017-07-20T19:00:41.335Z,6.90
2017-07-20T19:03:08.986Z,1.73
2017-07-20T19:05:36.610Z,1.80
2017-07-20T19:08:04.254Z,2.33
2017-07-20T19:10:31.890Z,1.83
2017-07-20T19:12:59.517Z,3.00
2017-07-20T19:15:27.125Z,1.50
2017-07-20T19:17:54.827Z,2.00
2017-07-20T19:20:22.432Z,1.97
2017-07-20T19:22:50.067Z,1.30
2017-07-20T19:25:17.669Z,1.20
2017-07-20T19:27:45.344Z,3.97
2017-07-20T19:30:12.955Z,3.70
2017-07-20T19:32:40.594Z,5.67
2017-07-20T19:35:08.214Z,1.57
2017-07-20T19:37:35.858Z,2.17
2017-07-20T19:40:03.466Z,3.73
2017-07-20T19:42:31.130Z,1.27
2017-07-20T19:44:58.754Z,1.60
2017-07-20T19:47:26.385Z,1.30
2017-07-20T19:49:53.977Z,3.30
2017-07-20T19:52:21.627Z,1.50
2017-07-20T19:54:49.234Z,1.43
2017-07-20T19:57:16.883Z,2.87
2017-07-20T19:59:44.495Z,2.80
2017-07-20T20:02:12.092Z,3.03
2017-07-20T20:04:39.730Z,1.70
2017-07-20T20:07:07.421Z,2.00
2017-07-20T20:09:35.046Z,2.47
2017-07-20T20:12:02.752Z,3.30
2017-07-20T20:14:30.395Z,3.90
2017-07-20T20:16:57.998Z,2.20
2017-07-20T20:19:25.680Z,2.43
2017-07-20T20:21:53.301Z,3.47
2017-07-20T20:24:20.945Z,2.10
2017-07-20T20:26:48.562Z,1.90
2017-07-20T20:29:16.218Z,2.80
2017-07-20T20:31:43.820Z,1.50
2017-07-20T20:34:11.462Z,2.63
2017-07-20T20:36:39.087Z,12.90
2017-07-20T20:39:06.712Z,3.57
2017-07-20T20:41:34.321Z,3.17
2017-07-20T20:44:01.988Z,2.20
2017-07-20T20:46:29.588Z,2.63
2017-07-20T20:48:57.206Z,3.30
2017-07-20T20:51:24.884Z,3.10
2017-07-20T20:53:54.190Z,2.00
2017-07-20T20:56:21.837Z,3.27
2017-07-20T20:58:49.447Z,7.10
2017-07-20T21:01:17.190Z,2.87
2017-07-20T21:03:44.798Z,3.63
2017-07-20T21:06:12.435Z,2.93
2017-07-20T21:08:40.078Z,2.47
2017-07-20T21:11:07.743Z,6.93
2017-07-20T21:13:35.368Z,6.00
2017-07-20T21:16:03.010Z,4.10
2017-07-20T21:18:30.626Z,3.47
2017-07-20T21:20:58.328Z,3.77
2017-07-20T21:23:25.939Z,7.43
2017-07-20T21:25:53.536Z,2.90
2017-07-20T21:28:21.183Z,3.10
2017-07-20T21:30:48.797Z,2.83
2017-07-20T21:33:16.459Z,5.97
2017-07-20T21:35:44.066Z,7.13
2017-07-20T21:38:11.752Z,2.80
2017-07-20T21:40:39.343Z,8.93
2017-07-20T21:43:06.940Z,5.43
2017-07-20T21:45:34.599Z,3.53
2017-07-20T21:48:02.207Z,6.53
2017-07-20T21:50:29.872Z,7.03
2017-07-20T21:52:57.475Z,5.90
2017-07-20T21:55:25.151Z,2.50
2017-07-20T21:57:52.774Z,7.40
2017-07-20T22:00:20.514Z,4.00
2017-07-20T22:02:48.123Z,4.13
2017-07-20T22:05:15.759Z,4.03
2017-07-20T22:07:43.422Z,4.43
2017-07-20T22:10:11.044Z,4.47
2017-07-20T22:12:38.643Z,3.67
2017-07-20T22:15:06.247Z,5.57
2017-07-20T22:17:33.842Z,3.60
2017-07-20T22:20:01.462Z,3.80
2017-07-20T22:22:29.063Z,3.17
2017-07-20T22:24:56.690Z,5.53
2017-07-20T22:27:24.320Z,3.00
2017-07-20T22:29:51.943Z,2.60
2017-07-20T22:32:19.559Z,6.87
2017-07-20T22:34:47.199Z,3.33
2017-07-20T22:37:14.795Z,2.83
2017-07-20T22:39:42.463Z,5.00
2017-07-20T22:42:10.058Z,6.50
2017-07-20T22:44:37.674Z,2.70
2017-07-20T22:47:05.299Z,3.97
2017-07-20T22:49:32.986Z,5.70
2017-07-20T22:52:00.609Z,7.97
2017-07-20T22:54:28.273Z,3.00
2017-07-20T22:56:56.074Z,3.10
2017-07-20T22:59:23.772Z,6.70
2017-07-20T23:01:51.378Z,3.77
2017-07-20T23:04:18.988Z,6.20
2017-07-20T23:06:46.632Z,5.03
2017-07-20T23:09:14.254Z,3.73
2017-07-20T23:11:41.902Z,5.10
2017-07-20T23:14:09.539Z,2.90
2017-07-20T23:16:37.158Z,5.20
2017-07-20T23:19:04.830Z,5.23
2017-07-20T23:21:32.463Z,4.13
2017-07-20T23:24:00.059Z,2.50
2017-07-20T23:26:27.692Z,5.00
2017-07-20T23:28:55.281Z,4.23
2017-07-20T23:31:22.913Z,3.43
2017-07-20T23:33:50.499Z,3.20
2017-07-20T23:36:18.118Z,2.73
2017-07-20T23:38:45.710Z,2.37
2017-07-20T23:41:13.375Z,4.80
2017-07-20T23:43:40.984Z,5.40
2017-07-20T23:46:08.566Z,3.17
2017-07-20T23:48:36.189Z,3.23
2017-07-20T23:51:03.826Z,2.27
2017-07-20T23:53:31.432Z,4.00
2017-07-20T23:55:59.042Z,4.50
2017-07-20T23:58:26.676Z,5.53
